sensor_id;sensor_type;location;lat;lon;timestamp;P1;durP1;ratioP1;P2;durP2;ratioP2
16928;SDS011;8581;47.334;11.190;2023-04-01T00:01:38;0.33;;;0.30;;
16928;SDS011;8581;47.334;11.190;2023-04-01T00:04:09;0.43;;;0.30;;
16928;SDS011;8581;47.334;11.190;2023-04-01T00:06:41;2.50;;;0.50;;
16928;SDS011;8581;47.334;11.190;2023-04-01T00:09:13;0.30;;;0.30;;
16928;SDS011;8581;47.334;11.190;2023-04-01T00:11:44;0.93;;;0.40;;
16928;SDS011;8581;47.334;11.190;2023-04-01T00:14:16;0.40;;;0.40;;
16928;SDS011;8581;47.334;11.190;2023-04-01T00:16:47;0.60;;;0.40;;
16928;SDS011;8581;47.334;11.190;2023-04-01T00:19:19;2.17;;;0.43;;
16928;SDS011;8581;47.334;11.190;2023-04-01T00:21:50;0.70;;;0.40;;
16928;SDS011;8581;47.334;11.190;2023-04-01T00:24:22;0.83;;;0.30;;
16928;SDS011;8581;47.334;11.190;2023-04-01T00:26:54;0.33;;;0.30;;
16928;SDS011;8581;47.334;11.190;2023-04-01T00:29:26;2.10;;;0.50;;
16928;SDS011;8581;47.334;11.190;2023-04-01T00:31:57;0.30;;;0.30;;
16928;SDS011;8581;47.334;11.190;2023-04-01T00:34:29;1.57;;;0.40;;
16928;SDS011;8581;47.334;11.190;2023-04-01T00:37:01;0.53;;;0.40;;
16928;SDS011;8581;47.334;11.190;2023-04-01T00:39:33;0.93;;;0.43;;
16928;SDS011;8581;47.334;11.190;2023-04-01T00:42:04;0.30;;;0.30;;
16928;SDS011;8581;47.334;11.190;2023-04-01T00:44:36;0.63;;;0.40;;
16928;SDS011;8581;47.334;11.190;2023-04-01T00:47:07;1.23;;;0.63;;
16928;SDS011;8581;47.334;11.190;2023-04-01T00:49:39;0.90;;;0.67;;
16928;SDS011;8581;47.334;11.190;2023-04-01T00:52:11;0.80;;;0.63;;
16928;SDS011;8581;47.334;11.190;2023-04-01T00:54:43;0.80;;;0.60;;
16928;SDS011;8581;47.334;11.190;2023-04-01T00:57:18;1.43;;;0.90;;
16928;SDS011;8581;47.334;11.190;2023-04-01T00:59:49;0.50;;;0.50;;
16928;SDS011;8581;47.334;11.190;2023-04-01T01:02:20;2.00;;;0.50;;
16928;SDS011;8581;47.334;11.190;2023-04-01T01:04:52;2.97;;;1.00;;
16928;SDS011;8581;47.334;11.190;2023-04-01T01:10:10;0.97;;;0.70;;
16928;SDS011;8581;47.334;11.190;2023-04-01T01:15:56;1.00;;;0.83;;
16928;SDS011;8581;47.334;11.190;2023-04-01T01:18:33;1.70;;;0.47;;
16928;SDS011;8581;47.334;11.190;2023-04-01T01:24:38;1.37;;;0.43;;
16928;SDS011;8581;47.334;11.190;2023-04-01T01:27:15;1.90;;;0.60;;
16928;SDS011;8581;47.334;11.190;2023-04-01T01:29:54;0.40;;;0.40;;
16928;SDS011;8581;47.334;11.190;2023-04-01T01:32:35;0.40;;;0.40;;
16928;SDS011;8581;47.334;11.190;2023-04-01T01:38:04;0.93;;;0.40;;
16928;SDS011;8581;47.334;11.190;2023-04-01T01:40:34;0.60;;;0.50;;
16928;SDS011;8581;47.334;11.190;2023-04-01T01:43:07;1.70;;;0.40;;
16928;SDS011;8581;47.334;11.190;2023-04-01T01:45:39;0.77;;;0.40;;
16928;SDS011;8581;47.334;11.190;2023-04-01T01:48:09;1.10;;;0.30;;
16928;SDS011;8581;47.334;11.190;2023-04-01T01:50:41;0.60;;;0.47;;
16928;SDS011;8581;47.334;11.190;2023-04-01T01:53:12;0.67;;;0.30;;
16928;SDS011;8581;47.334;11.190;2023-04-01T01:55:45;0.50;;;0.47;;
16928;SDS011;8581;47.334;11.190;2023-04-01T01:58:20;0.83;;;0.40;;
16928;SDS011;8581;47.334;11.190;2023-04-01T02:00:53;0.30;;;0.30;;
16928;SDS011;8581;47.334;11.190;2023-04-01T02:03:24;1.17;;;0.40;;
16928;SDS011;8581;47.334;11.190;2023-04-01T02:05:56;1.20;;;0.50;;
16928;SDS011;8581;47.334;11.190;2023-04-01T02:08:28;0.40;;;0.37;;
16928;SDS011;8581;47.334;11.190;2023-04-01T02:11:01;0.73;;;0.40;;
16928;SDS011;8581;47.334;11.190;2023-04-01T02:13:39;0.73;;;0.50;;
16928;SDS011;8581;47.334;11.190;2023-04-01T02:16:13;1.17;;;0.73;;
16928;SDS011;8581;47.334;11.190;2023-04-01T02:18:43;0.93;;;0.87;;
16928;SDS011;8581;47.334;11.190;2023-04-01T02:21:15;0.73;;;0.70;;
16928;SDS011;8581;47.334;11.190;2023-04-01T02:23:46;1.40;;;0.60;;
16928;SDS011;8581;47.334;11.190;2023-04-01T02:26:18;0.63;;;0.50;;
16928;SDS011;8581;47.334;11.190;2023-04-01T02:28:49;0.90;;;0.50;;
16928;SDS011;8581;47.334;11.190;2023-04-01T02:31:21;0.80;;;0.70;;
16928;SDS011;8581;47.334;11.190;2023-04-01T02:33:53;0.77;;;0.60;;
16928;SDS011;8581;47.334;11.190;2023-04-01T02:36:24;0.57;;;0.50;;
16928;SDS011;8581;47.334;11.190;2023-04-01T02:38:56;0.30;;;0.30;;
16928;SDS011;8581;47.334;11.190;2023-04-01T02:41:28;0.83;;;0.30;;
16928;SDS011;8581;47.334;11.190;2023-04-01T02:43:59;0.57;;;0.40;;
16928;SDS011;8581;47.334;11.190;2023-04-01T02:46:31;0.30;;;0.20;;
16928;SDS011;8581;47.334;11.190;2023-04-01T02:49:02;0.47;;;0.37;;
16928;SDS011;8581;47.334;11.190;2023-04-01T02:51:34;0.40;;;0.40;;
16928;SDS011;8581;47.334;11.190;2023-04-01T02:54:06;0.80;;;0.70;;
16928;SDS011;8581;47.334;11.190;2023-04-01T02:56:37;0.50;;;0.50;;
16928;SDS011;8581;47.334;11.190;2023-04-01T02:59:09;0.30;;;0.30;;
16928;SDS011;8581;47.334;11.190;2023-04-01T03:01:40;0.70;;;0.40;;
16928;SDS011;8581;47.334;11.190;2023-04-01T03:04:12;0.77;;;0.50;;
16928;SDS011;8581;47.334;11.190;2023-04-01T03:06:44;0.20;;;0.20;;
16928;SDS011;8581;47.334;11.190;2023-04-01T03:09:15;1.27;;;0.23;;
16928;SDS011;8581;47.334;11.190;2023-04-01T03:11:47;2.93;;;0.33;;
16928;SDS011;8581;47.334;11.190;2023-04-01T03:14:18;0.47;;;0.10;;
16928;SDS011;8581;47.334;11.190;2023-04-01T03:16:50;0.20;;;0.20;;
16928;SDS011;8581;47.334;11.190;2023-04-01T03:19:21;1.07;;;0.30;;
16928;SDS011;8581;47.334;11.190;2023-04-01T03:21:53;0.13;;;0.13;;
16928;SDS011;8581;47.334;11.190;2023-04-01T03:24:25;0.63;;;0.20;;
16928;SDS011;8581;47.334;11.190;2023-04-01T03:26:56;0.20;;;0.20;;
16928;SDS011;8581;47.334;11.190;2023-04-01T03:29:28;1.03;;;0.20;;
16928;SDS011;8581;47.334;11.190;2023-04-01T03:31:59;0.33;;;0.30;;
16928;SDS011;8581;47.334;11.190;2023-04-01T03:34:31;0.50;;;0.30;;
16928;SDS011;8581;47.334;11.190;2023-04-01T03:37:03;0.20;;;0.20;;
16928;SDS011;8581;47.334;11.190;2023-04-01T03:39:34;0.50;;;0.40;;
16928;SDS011;8581;47.334;11.190;2023-04-01T03:42:06;0.40;;;0.30;;
16928;SDS011;8581;47.334;11.190;2023-04-01T03:44:37;0.40;;;0.30;;
16928;SDS011;8581;47.334;11.190;2023-04-01T03:47:09;0.37;;;0.30;;
16928;SDS011;8581;47.334;11.190;2023-04-01T03:49:41;2.77;;;0.47;;
16928;SDS011;8581;47.334;11.190;2023-04-01T03:52:12;0.20;;;0.20;;
16928;SDS011;8581;47.334;11.190;2023-04-01T03:54:44;0.40;;;0.30;;
16928;SDS011;8581;47.334;11.190;2023-04-01T03:57:15;0.43;;;0.20;;
16928;SDS011;8581;47.334;11.190;2023-04-01T03:59:47;0.23;;;0.20;;
16928;SDS011;8581;47.334;11.190;2023-04-01T04:02:19;0.63;;;0.20;;
16928;SDS011;8581;47.334;11.190;2023-04-01T04:04:50;1.37;;;0.40;;
16928;SDS011;8581;47.334;11.190;2023-04-01T04:07:22;0.33;;;0.20;;
16928;SDS011;8581;47.334;11.190;2023-04-01T04:09:53;0.30;;;0.17;;
16928;SDS011;8581;47.334;11.190;2023-04-01T04:12:25;0.10;;;0.10;;
16928;SDS011;8581;47.334;11.190;2023-04-01T04:14:57;0.30;;;0.30;;
16928;SDS011;8581;47.334;11.190;2023-04-01T04:17:28;0.37;;;0.10;;
16928;SDS011;8581;47.334;11.190;2023-04-01T04:20:00;1.60;;;0.60;;
16928;SDS011;8581;47.334;11.190;2023-04-01T04:22:31;0.77;;;0.30;;
16928;SDS011;8581;47.334;11.190;2023-04-01T04:25:03;0.53;;;0.30;;
16928;SDS011;8581;47.334;11.190;2023-04-01T04:27:35;0.17;;;0.17;;
16928;SDS011;8581;47.334;11.190;2023-04-01T04:30:08;0.20;;;0.20;;
16928;SDS011;8581;47.334;11.190;2023-04-01T04:32:39;0.37;;;0.20;;
16928;SDS011;8581;47.334;11.190;2023-04-01T04:35:11;0.10;;;0.10;;
16928;SDS011;8581;47.334;11.190;2023-04-01T04:37:43;0.73;;;0.30;;
16928;SDS011;8581;47.334;11.190;2023-04-01T04:40:14;0.60;;;0.30;;
16928;SDS011;8581;47.334;11.190;2023-04-01T04:42:46;0.57;;;0.30;;
16928;SDS011;8581;47.334;11.190;2023-04-01T04:45:18;2.20;;;0.30;;
16928;SDS011;8581;47.334;11.190;2023-04-01T04:47:49;0.20;;;0.20;;
16928;SDS011;8581;47.334;11.190;2023-04-01T04:50:21;0.43;;;0.43;;
16928;SDS011;8581;47.334;11.190;2023-04-01T04:52:52;1.03;;;0.10;;
16928;SDS011;8581;47.334;11.190;2023-04-01T04:55:24;0.20;;;0.10;;
16928;SDS011;8581;47.334;11.190;2023-04-01T04:57:56;0.10;;;0.10;;
16928;SDS011;8581;47.334;11.190;2023-04-01T05:00:27;0.10;;;0.10;;
16928;SDS011;8581;47.334;11.190;2023-04-01T05:02:59;0.30;;;0.30;;
16928;SDS011;8581;47.334;11.190;2023-04-01T05:05:30;0.60;;;0.30;;
16928;SDS011;8581;47.334;11.190;2023-04-01T05:08:02;0.40;;;0.30;;
16928;SDS011;8581;47.334;11.190;2023-04-01T05:10:34;0.43;;;0.30;;
16928;SDS011;8581;47.334;11.190;2023-04-01T05:13:05;0.40;;;0.30;;
16928;SDS011;8581;47.334;11.190;2023-04-01T05:15:37;0.47;;;0.20;;
16928;SDS011;8581;47.334;11.190;2023-04-01T05:18:09;0.33;;;0.20;;
16928;SDS011;8581;47.334;11.190;2023-04-01T05:20:45;0.27;;;0.20;;
16928;SDS011;8581;47.334;11.190;2023-04-01T05:23:12;0.10;;;0.10;;
16928;SDS011;8581;47.334;11.190;2023-04-01T05:25:43;0.30;;;0.30;;
16928;SDS011;8581;47.334;11.190;2023-04-01T05:28:15;0.40;;;0.30;;
16928;SDS011;8581;47.334;11.190;2023-04-01T05:30:47;0.20;;;0.20;;
16928;SDS011;8581;47.334;11.190;2023-04-01T05:33:18;0.07;;;0.07;;
16928;SDS011;8581;47.334;11.190;2023-04-01T05:35:50;0.00;;;0.00;;
16928;SDS011;8581;47.334;11.190;2023-04-01T05:38:21;0.13;;;0.10;;
16928;SDS011;8581;47.334;11.190;2023-04-01T05:40:58;1.30;;;0.30;;
16928;SDS011;8581;47.334;11.190;2023-04-01T05:43:24;0.33;;;0.33;;
16928;SDS011;8581;47.334;11.190;2023-04-01T05:45:57;0.60;;;0.40;;
16928;SDS011;8581;47.334;11.190;2023-04-01T05:48:28;0.30;;;0.30;;
16928;SDS011;8581;47.334;11.190;2023-04-01T05:50:59;0.20;;;0.20;;
16928;SDS011;8581;47.334;11.190;2023-04-01T05:53:31;0.10;;;0.10;;
16928;SDS011;8581;47.334;11.190;2023-04-01T05:56:03;0.23;;;0.20;;
16928;SDS011;8581;47.334;11.190;2023-04-01T05:58:35;0.20;;;0.20;;
16928;SDS011;8581;47.334;11.190;2023-04-01T06:01:08;2.03;;;1.50;;
16928;SDS011;8581;47.334;11.190;2023-04-01T06:03:38;2.43;;;2.23;;
16928;SDS011;8581;47.334;11.190;2023-04-01T06:06:13;4.80;;;4.40;;
16928;SDS011;8581;47.334;11.190;2023-04-01T06:08:44;2.70;;;2.43;;
16928;SDS011;8581;47.334;11.190;2023-04-01T06:11:37;0.73;;;0.73;;
16928;SDS011;8581;47.334;11.190;2023-04-01T06:14:28;0.50;;;0.50;;
16928;SDS011;8581;47.334;11.190;2023-04-01T06:19:53;0.73;;;0.40;;
16928;SDS011;8581;47.334;11.190;2023-04-01T06:22:34;0.77;;;0.40;;
16928;SDS011;8581;47.334;11.190;2023-04-01T06:26:14;0.40;;;0.40;;
16928;SDS011;8581;47.334;11.190;2023-04-01T06:30:56;0.43;;;0.43;;
16928;SDS011;8581;47.334;11.190;2023-04-01T06:45:39;0.30;;;0.30;;
16928;SDS011;8581;47.334;11.190;2023-04-01T06:48:27;0.30;;;0.30;;
16928;SDS011;8581;47.334;11.190;2023-04-01T06:51:04;0.27;;;0.27;;
16928;SDS011;8581;47.334;11.190;2023-04-01T06:54:00;0.50;;;0.50;;
16928;SDS011;8581;47.334;11.190;2023-04-01T06:56:28;0.87;;;0.80;;
16928;SDS011;8581;47.334;11.190;2023-04-01T06:59:01;0.73;;;0.50;;
16928;SDS011;8581;47.334;11.190;2023-04-01T07:01:33;3.23;;;2.80;;
16928;SDS011;8581;47.334;11.190;2023-04-01T07:04:06;3.37;;;3.07;;
16928;SDS011;8581;47.334;11.190;2023-04-01T07:06:57;0.70;;;0.53;;
16928;SDS011;8581;47.334;11.190;2023-04-01T07:09:30;0.20;;;0.20;;
16928;SDS011;8581;47.334;11.190;2023-04-01T07:12:03;0.20;;;0.20;;
16928;SDS011;8581;47.334;11.190;2023-04-01T07:14:35;0.30;;;0.20;;
16928;SDS011;8581;47.334;11.190;2023-04-01T07:17:09;0.43;;;0.20;;
16928;SDS011;8581;47.334;11.190;2023-04-01T07:19:50;0.20;;;0.20;;
16928;SDS011;8581;47.334;11.190;2023-04-01T07:25:05;0.50;;;0.50;;
16928;SDS011;8581;47.334;11.190;2023-04-01T07:27:33;0.90;;;0.70;;
16928;SDS011;8581;47.334;11.190;2023-04-01T07:30:13;0.20;;;0.20;;
16928;SDS011;8581;47.334;11.190;2023-04-01T07:32:41;0.50;;;0.33;;
16928;SDS011;8581;47.334;11.190;2023-04-01T07:37:58;0.40;;;0.40;;
16928;SDS011;8581;47.334;11.190;2023-04-01T07:40:32;0.43;;;0.20;;
16928;SDS011;8581;47.334;11.190;2023-04-01T07:46:13;0.30;;;0.30;;
16928;SDS011;8581;47.334;11.190;2023-04-01T07:52:22;0.80;;;0.40;;
16928;SDS011;8581;47.334;11.190;2023-04-01T07:54:37;0.33;;;0.20;;
16928;SDS011;8581;47.334;11.190;2023-04-01T07:57:16;0.30;;;0.30;;
16928;SDS011;8581;47.334;11.190;2023-04-01T07:59:58;0.30;;;0.20;;
16928;SDS011;8581;47.334;11.190;2023-04-01T08:05:27;0.80;;;0.60;;
16928;SDS011;8581;47.334;11.190;2023-04-01T08:08:33;0.20;;;0.20;;
16928;SDS011;8581;47.334;11.190;2023-04-01T08:10:55;0.10;;;0.10;;
16928;SDS011;8581;47.334;11.190;2023-04-01T08:13:30;0.30;;;0.30;;
16928;SDS011;8581;47.334;11.190;2023-04-01T08:16:18;0.23;;;0.20;;
16928;SDS011;8581;47.334;11.190;2023-04-01T08:18:53;0.30;;;0.30;;
16928;SDS011;8581;47.334;11.190;2023-04-01T08:21:32;0.20;;;0.20;;
16928;SDS011;8581;47.334;11.190;2023-04-01T08:24:10;0.33;;;0.20;;
16928;SDS011;8581;47.334;11.190;2023-04-01T08:26:38;0.20;;;0.20;;
16928;SDS011;8581;47.334;11.190;2023-04-01T08:29:11;0.23;;;0.20;;
16928;SDS011;8581;47.334;11.190;2023-04-01T08:31:47;0.57;;;0.10;;
16928;SDS011;8581;47.334;11.190;2023-04-01T08:34:34;0.13;;;0.13;;
16928;SDS011;8581;47.334;11.190;2023-04-01T08:37:08;0.60;;;0.20;;
16928;SDS011;8581;47.334;11.190;2023-04-01T08:39:47;0.20;;;0.20;;
16928;SDS011;8581;47.334;11.190;2023-04-01T08:42:29;0.10;;;0.10;;
16928;SDS011;8581;47.334;11.190;2023-04-01T08:48:00;0.20;;;0.20;;
16928;SDS011;8581;47.334;11.190;2023-04-01T08:53:27;0.40;;;0.40;;
16928;SDS011;8581;47.334;11.190;2023-04-01T08:59:10;0.30;;;0.30;;
16928;SDS011;8581;47.334;11.190;2023-04-01T09:05:18;0.83;;;0.40;;
16928;SDS011;8581;47.334;11.190;2023-04-01T09:08:13;0.60;;;0.40;;
16928;SDS011;8581;47.334;11.190;2023-04-01T09:13:59;1.37;;;0.20;;
16928;SDS011;8581;47.334;11.190;2023-04-01T09:16:57;0.20;;;0.20;;
16928;SDS011;8581;47.334;11.190;2023-04-01T09:22:35;0.10;;;0.10;;
16928;SDS011;8581;47.334;11.190;2023-04-01T09:28:55;0.30;;;0.30;;
16928;SDS011;8581;47.334;11.190;2023-04-01T09:32:04;0.40;;;0.10;;
16928;SDS011;8581;47.334;11.190;2023-04-01T09:34:35;0.20;;;0.20;;
16928;SDS011;8581;47.334;11.190;2023-04-01T09:37:20;0.43;;;0.20;;
16928;SDS011;8581;47.334;11.190;2023-04-01T09:40:14;0.10;;;0.10;;
16928;SDS011;8581;47.334;11.190;2023-04-01T09:43:02;0.10;;;0.10;;
16928;SDS011;8581;47.334;11.190;2023-04-01T09:49:04;0.10;;;0.10;;
16928;SDS011;8581;47.334;11.190;2023-04-01T09:51:53;0.00;;;0.00;;
16928;SDS011;8581;47.334;11.190;2023-04-01T09:54:32;0.10;;;0.10;;
16928;SDS011;8581;47.334;11.190;2023-04-01T09:57:10;0.20;;;0.20;;
16928;SDS011;8581;47.334;11.190;2023-04-01T09:59:47;0.40;;;0.10;;
16928;SDS011;8581;47.334;11.190;2023-04-01T10:02:37;0.10;;;0.10;;
16928;SDS011;8581;47.334;11.190;2023-04-01T10:10:47;0.10;;;0.10;;
16928;SDS011;8581;47.334;11.190;2023-04-01T10:13:39;0.10;;;0.10;;
16928;SDS011;8581;47.334;11.190;2023-04-01T10:22:06;0.00;;;0.00;;
16928;SDS011;8581;47.334;11.190;2023-04-01T10:24:52;0.10;;;0.10;;
16928;SDS011;8581;47.334;11.190;2023-04-01T10:30:37;0.10;;;0.10;;
16928;SDS011;8581;47.334;11.190;2023-04-01T10:36:13;1.80;;;0.20;;
16928;SDS011;8581;47.334;11.190;2023-04-01T10:39:07;0.17;;;0.17;;
16928;SDS011;8581;47.334;11.190;2023-04-01T10:41:46;0.20;;;0.20;;
16928;SDS011;8581;47.334;11.190;2023-04-01T10:47:19;0.17;;;0.17;;
16928;SDS011;8581;47.334;11.190;2023-04-01T10:56:03;0.85;;;0.20;;
16928;SDS011;8581;47.334;11.190;2023-04-01T10:58:45;0.10;;;0.10;;
16928;SDS011;8581;47.334;11.190;2023-04-01T11:01:21;0.63;;;0.20;;
16928;SDS011;8581;47.334;11.190;2023-04-01T11:04:04;1.33;;;0.40;;
16928;SDS011;8581;47.334;11.190;2023-04-01T11:06:41;0.10;;;0.10;;
16928;SDS011;8581;47.334;11.190;2023-04-01T11:09:20;0.10;;;0.10;;
16928;SDS011;8581;47.334;11.190;2023-04-01T11:13:18;0.20;;;0.20;;
16928;SDS011;8581;47.334;11.190;2023-04-01T11:15:04;0.20;;;0.20;;
16928;SDS011;8581;47.334;11.190;2023-04-01T11:17:54;0.10;;;0.10;;
16928;SDS011;8581;47.334;11.190;2023-04-01T11:20:35;0.20;;;0.20;;
16928;SDS011;8581;47.334;11.190;2023-04-01T11:23:10;1.10;;;0.68;;
16928;SDS011;8581;47.334;11.190;2023-04-01T11:26:00;0.30;;;0.30;;
16928;SDS011;8581;47.334;11.190;2023-04-01T11:31:32;0.10;;;0.10;;
16928;SDS011;8581;47.334;11.190;2023-04-01T11:37:05;0.10;;;0.10;;
16928;SDS011;8581;47.334;11.190;2023-04-01T11:42:43;0.20;;;0.20;;
16928;SDS011;8581;47.334;11.190;2023-04-01T11:46:18;0.10;;;0.10;;
16928;SDS011;8581;47.334;11.190;2023-04-01T11:48:27;0.20;;;0.20;;
16928;SDS011;8581;47.334;11.190;2023-04-01T11:51:03;0.20;;;0.20;;
16928;SDS011;8581;47.334;11.190;2023-04-01T11:53:38;0.10;;;0.00;;
16928;SDS011;8581;47.334;11.190;2023-04-01T11:56:26;0.00;;;0.00;;
16928;SDS011;8581;47.334;11.190;2023-04-01T12:02:23;0.10;;;0.10;;
16928;SDS011;8581;47.334;11.190;2023-04-01T12:08:20;0.10;;;0.10;;
16928;SDS011;8581;47.334;11.190;2023-04-01T12:10:59;0.00;;;0.00;;
16928;SDS011;8581;47.334;11.190;2023-04-01T12:13:36;0.00;;;0.00;;
16928;SDS011;8581;47.334;11.190;2023-04-01T12:16:16;0.10;;;0.10;;
16928;SDS011;8581;47.334;11.190;2023-04-01T12:18:49;0.03;;;0.03;;
16928;SDS011;8581;47.334;11.190;2023-04-01T12:21:36;0.07;;;0.07;;
16928;SDS011;8581;47.334;11.190;2023-04-01T12:25:19;0.23;;;0.10;;
16928;SDS011;8581;47.334;11.190;2023-04-01T12:30:14;0.10;;;0.10;;
16928;SDS011;8581;47.334;11.190;2023-04-01T12:32:46;0.00;;;0.00;;
16928;SDS011;8581;47.334;11.190;2023-04-01T12:35:21;0.10;;;0.10;;
16928;SDS011;8581;47.334;11.190;2023-04-01T12:38:04;0.00;;;0.00;;
16928;SDS011;8581;47.334;11.190;2023-04-01T12:40:40;0.00;;;0.00;;
16928;SDS011;8581;47.334;11.190;2023-04-01T12:43:19;0.00;;;0.00;;
16928;SDS011;8581;47.334;11.190;2023-04-01T12:45:49;0.00;;;0.00;;
16928;SDS011;8581;47.334;11.190;2023-04-01T12:48:55;0.10;;;0.10;;
16928;SDS011;8581;47.334;11.190;2023-04-01T12:51:24;0.10;;;0.10;;
16928;SDS011;8581;47.334;11.190;2023-04-01T12:57:03;0.23;;;0.10;;
16928;SDS011;8581;47.334;11.190;2023-04-01T13:05:12;0.40;;;0.20;;
16928;SDS011;8581;47.334;11.190;2023-04-01T13:07:50;0.10;;;0.10;;
16928;SDS011;8581;47.334;11.190;2023-04-01T13:10:38;0.00;;;0.00;;
16928;SDS011;8581;47.334;11.190;2023-04-01T13:16:02;0.00;;;0.00;;
16928;SDS011;8581;47.334;11.190;2023-04-01T13:18:47;0.20;;;0.20;;
16928;SDS011;8581;47.334;11.190;2023-04-01T13:21:19;0.87;;;0.10;;
16928;SDS011;8581;47.334;11.190;2023-04-01T13:23:54;0.00;;;0.00;;
16928;SDS011;8581;47.334;11.190;2023-04-01T13:26:58;0.00;;;0.00;;
16928;SDS011;8581;47.334;11.190;2023-04-01T13:29:32;0.00;;;0.00;;
16928;SDS011;8581;47.334;11.190;2023-04-01T13:32:05;0.57;;;0.10;;
16928;SDS011;8581;47.334;11.190;2023-04-01T13:34:59;0.10;;;0.10;;
16928;SDS011;8581;47.334;11.190;2023-04-01T13:37:45;0.00;;;0.00;;
16928;SDS011;8581;47.334;11.190;2023-04-01T13:40:27;0.03;;;0.00;;
16928;SDS011;8581;47.334;11.190;2023-04-01T13:43:16;0.20;;;0.20;;
16928;SDS011;8581;47.334;11.190;2023-04-01T13:46:12;0.37;;;0.37;;
16928;SDS011;8581;47.334;11.190;2023-04-01T13:48:55;0.20;;;0.20;;
16928;SDS011;8581;47.334;11.190;2023-04-01T13:51:40;0.10;;;0.10;;
16928;SDS011;8581;47.334;11.190;2023-04-01T13:54:34;0.00;;;0.00;;
16928;SDS011;8581;47.334;11.190;2023-04-01T13:57:16;0.10;;;0.10;;
16928;SDS011;8581;47.334;11.190;2023-04-01T14:03:00;0.30;;;0.20;;
16928;SDS011;8581;47.334;11.190;2023-04-01T14:08:20;0.10;;;0.10;;
16928;SDS011;8581;47.334;11.190;2023-04-01T14:11:01;0.10;;;0.10;;
16928;SDS011;8581;47.334;11.190;2023-04-01T14:16:45;0.00;;;0.00;;
16928;SDS011;8581;47.334;11.190;2023-04-01T14:19:21;0.07;;;0.00;;
16928;SDS011;8581;47.334;11.190;2023-04-01T14:22:00;0.10;;;0.10;;
16928;SDS011;8581;47.334;11.190;2023-04-01T14:27:16;0.10;;;0.10;;
16928;SDS011;8581;47.334;11.190;2023-04-01T14:29:59;0.00;;;0.00;;
16928;SDS011;8581;47.334;11.190;2023-04-01T14:32:47;2.40;;;0.87;;
16928;SDS011;8581;47.334;11.190;2023-04-01T14:35:34;0.30;;;0.30;;
16928;SDS011;8581;47.334;11.190;2023-04-01T14:46:23;0.53;;;0.43;;
16928;SDS011;8581;47.334;11.190;2023-04-01T14:49:00;0.20;;;0.20;;
16928;SDS011;8581;47.334;11.190;2023-04-01T14:51:35;0.77;;;0.30;;
16928;SDS011;8581;47.334;11.190;2023-04-01T14:54:08;0.30;;;0.30;;
16928;SDS011;8581;47.334;11.190;2023-04-01T14:56:46;0.40;;;0.40;;
16928;SDS011;8581;47.334;11.190;2023-04-01T15:02:08;0.00;;;0.00;;
16928;SDS011;8581;47.334;11.190;2023-04-01T15:04:43;1.67;;;1.40;;
16928;SDS011;8581;47.334;11.190;2023-04-01T15:08:35;0.30;;;0.30;;
16928;SDS011;8581;47.334;11.190;2023-04-01T15:10:41;0.00;;;0.00;;
16928;SDS011;8581;47.334;11.190;2023-04-01T15:16:23;0.10;;;0.10;;
16928;SDS011;8581;47.334;11.190;2023-04-01T15:19:17;0.67;;;0.20;;
16928;SDS011;8581;47.334;11.190;2023-04-01T15:21:50;0.20;;;0.20;;
16928;SDS011;8581;47.334;11.190;2023-04-01T15:24:24;0.30;;;0.27;;
16928;SDS011;8581;47.334;11.190;2023-04-01T15:27:03;0.93;;;0.37;;
16928;SDS011;8581;47.334;11.190;2023-04-01T15:29:43;1.07;;;0.97;;
16928;SDS011;8581;47.334;11.190;2023-04-01T15:32:31;0.23;;;0.23;;
16928;SDS011;8581;47.334;11.190;2023-04-01T15:35:14;0.13;;;0.13;;
16928;SDS011;8581;47.334;11.190;2023-04-01T15:37:49;0.00;;;0.00;;
16928;SDS011;8581;47.334;11.190;2023-04-01T15:40:24;0.37;;;0.37;;
16928;SDS011;8581;47.334;11.190;2023-04-01T15:48:51;0.10;;;0.10;;
16928;SDS011;8581;47.334;11.190;2023-04-01T15:51:45;0.30;;;0.30;;
16928;SDS011;8581;47.334;11.190;2023-04-01T15:54:32;0.20;;;0.20;;
16928;SDS011;8581;47.334;11.190;2023-04-01T15:57:10;0.10;;;0.10;;
16928;SDS011;8581;47.334;11.190;2023-04-01T15:59:51;0.57;;;0.20;;
16928;SDS011;8581;47.334;11.190;2023-04-01T16:05:36;0.33;;;0.20;;
16928;SDS011;8581;47.334;11.190;2023-04-01T16:07:55;0.00;;;0.00;;
16928;SDS011;8581;47.334;11.190;2023-04-01T16:10:34;0.10;;;0.10;;
16928;SDS011;8581;47.334;11.190;2023-04-01T16:16:14;0.37;;;0.13;;
16928;SDS011;8581;47.334;11.190;2023-04-01T16:19:06;0.10;;;0.10;;
16928;SDS011;8581;47.334;11.190;2023-04-01T16:21:48;0.10;;;0.10;;
16928;SDS011;8581;47.334;11.190;2023-04-01T16:24:35;0.20;;;0.20;;
16928;SDS011;8581;47.334;11.190;2023-04-01T16:27:42;0.17;;;0.17;;
16928;SDS011;8581;47.334;11.190;2023-04-01T16:33:01;0.20;;;0.20;;
16928;SDS011;8581;47.334;11.190;2023-04-01T16:35:35;0.10;;;0.10;;
16928;SDS011;8581;47.334;11.190;2023-04-01T16:38:20;1.57;;;1.20;;
16928;SDS011;8581;47.334;11.190;2023-04-01T16:43:40;0.10;;;0.10;;
16928;SDS011;8581;47.334;11.190;2023-04-01T16:46:18;0.20;;;0.20;;
16928;SDS011;8581;47.334;11.190;2023-04-01T16:51:46;0.80;;;0.80;;
16928;SDS011;8581;47.334;11.190;2023-04-01T16:54:27;0.70;;;0.70;;
16928;SDS011;8581;47.334;11.190;2023-04-01T16:59:54;0.00;;;0.00;;
16928;SDS011;8581;47.334;11.190;2023-04-01T17:02:33;0.20;;;0.20;;
16928;SDS011;8581;47.334;11.190;2023-04-01T17:05:13;0.30;;;0.30;;
16928;SDS011;8581;47.334;11.190;2023-04-01T17:13:34;0.10;;;0.10;;
16928;SDS011;8581;47.334;11.190;2023-04-01T17:22:31;0.20;;;0.20;;
16928;SDS011;8581;47.334;11.190;2023-04-01T17:24:51;0.13;;;0.10;;
16928;SDS011;8581;47.334;11.190;2023-04-01T17:27:27;0.30;;;0.27;;
16928;SDS011;8581;47.334;11.190;2023-04-01T17:30:08;0.40;;;0.30;;
16928;SDS011;8581;47.334;11.190;2023-04-01T17:33:57;0.30;;;0.30;;
16928;SDS011;8581;47.334;11.190;2023-04-01T17:35:47;0.20;;;0.17;;
16928;SDS011;8581;47.334;11.190;2023-04-01T17:38:19;0.30;;;0.30;;
16928;SDS011;8581;47.334;11.190;2023-04-01T17:40:54;0.37;;;0.37;;
16928;SDS011;8581;47.334;11.190;2023-04-01T17:46:50;0.50;;;0.40;;
16928;SDS011;8581;47.334;11.190;2023-04-01T17:49:42;0.30;;;0.30;;
16928;SDS011;8581;47.334;11.190;2023-04-01T17:55:28;0.43;;;0.33;;
16928;SDS011;8581;47.334;11.190;2023-04-01T17:58:11;0.97;;;0.40;;
16928;SDS011;8581;47.334;11.190;2023-04-01T18:01:03;0.50;;;0.50;;
16928;SDS011;8581;47.334;11.190;2023-04-01T18:06:27;0.57;;;0.53;;
16928;SDS011;8581;47.334;11.190;2023-04-01T18:11:53;1.60;;;0.40;;
16928;SDS011;8581;47.334;11.190;2023-04-01T18:14:31;0.80;;;0.30;;
16928;SDS011;8581;47.334;11.190;2023-04-01T18:17:12;0.50;;;0.50;;
16928;SDS011;8581;47.334;11.190;2023-04-01T18:20:02;0.50;;;0.50;;
16928;SDS011;8581;47.334;11.190;2023-04-01T18:22:41;0.30;;;0.30;;
16928;SDS011;8581;47.334;11.190;2023-04-01T18:28:13;0.30;;;0.30;;
16928;SDS011;8581;47.334;11.190;2023-04-01T18:30:42;0.50;;;0.50;;
16928;SDS011;8581;47.334;11.190;2023-04-01T18:33:18;0.30;;;0.30;;
16928;SDS011;8581;47.334;11.190;2023-04-01T18:35:52;0.50;;;0.43;;
16928;SDS011;8581;47.334;11.190;2023-04-01T18:38:33;0.40;;;0.40;;
16928;SDS011;8581;47.334;11.190;2023-04-01T18:41:11;0.40;;;0.40;;
16928;SDS011;8581;47.334;11.190;2023-04-01T18:43:48;0.50;;;0.50;;
16928;SDS011;8581;47.334;11.190;2023-04-01T18:46:24;0.93;;;0.50;;
16928;SDS011;8581;47.334;11.190;2023-04-01T18:48:59;1.13;;;0.60;;
16928;SDS011;8581;47.334;11.190;2023-04-01T18:51:53;0.37;;;0.37;;
16928;SDS011;8581;47.334;11.190;2023-04-01T18:54:29;1.20;;;0.70;;
16928;SDS011;8581;47.334;11.190;2023-04-01T18:57:10;0.53;;;0.53;;
16928;SDS011;8581;47.334;11.190;2023-04-01T18:59:41;0.40;;;0.40;;
16928;SDS011;8581;47.334;11.190;2023-04-01T19:02:29;0.30;;;0.30;;
16928;SDS011;8581;47.334;11.190;2023-04-01T19:05:03;0.60;;;0.50;;
16928;SDS011;8581;47.334;11.190;2023-04-01T19:07:51;0.40;;;0.40;;
16928;SDS011;8581;47.334;11.190;2023-04-01T19:10:37;0.40;;;0.40;;